Blue Mound, Illinois
Current Conditions -  °F | °C
As of 4:55 PM on Monday 24 Nov 2014 (Local Time) from KTAZ Reporting Station
Overcast Overcast  
Wind Chill: 24°   Ceiling: 4100
Heat Index: 34°   Visibility: 10mi
Dew Point: 28°   Wind: 15mph
Humidity: 81%   Direction: 260°W
Pressure: 29.81"   Gusts: 18mph
Location:  39.7°N, 89.12°W
Report Text: KTAZ 242255Z AUTO 26013G16KT 10SM OVC041 01/M02 A2981 RMK AO2
Loading
Personal Weather Stations






























Interactive Weather Map New forecast layout! Learn more

10-Day Weather Forecast

Advertisements
Track Severe Weather on mobile